»·PEaware :: XOJ539 KHOU-KLAS

XOJ539 :: KHOU-KLAS

FLIGHT INFORMATION

Flight Status: Arrived
Operator:
XOJET
More flights by this operator :: More flights under this callsign
Pilot: Charles S. (11412)
Aircraft: BOMBARDIER BD-100 CHALLENGER 300
(CL30)
More flights by this aircraft type
Origin: KHOU Hobby
United States
Destination: KLAS McCarran Intl
United States
More flights between these airports :: More routes between these airports
Route: +RETYR5 JCT J86 PGS TYSSN5
File this flight plan on PilotEdge
Remarks:
Altitude:
(Current/Filed)
43,000ft
Speed:
(Current/Filed)
115kts
Departed: 26-Aug-18 02:19 PM
Arrived: 26-Aug-18 05:33 PM
Distance/Time
Traveled:
1072nm/3:14
Distance/Time
To Go:
Arrived

Flight Plot

Page will automatically refresh every two minutes.

Flight plan parsing failed; only flown route is shown


Map Options




Map Legend


Flown Route
Filed Route
Departure Airport
Arrival Airport
Navaid (VOR, NDB)
Fix

Horizontal Profiles

Position Reports

Time Latitude Longitude Heading Altitude Ground
Speed
26-Aug-18 14:16 29.642699 -95.286098 81 50ft 0kts
26-Aug-18 14:17 29.642807 -95.285535 54 49ft 5kts
26-Aug-18 14:18 29.648205 -95.285604 358 50ft 19kts
26-Aug-18 14:19 29.650621 -95.285143 133 50ft 10kts
26-Aug-18 14:20 29.647729 -95.281696 134 50ft 115kts
26-Aug-18 14:21 29.617345 -95.247969 138 2343ft 235kts
26-Aug-18 14:22 29.566982 -95.266607 266 5459ft 269kts
26-Aug-18 14:23 29.592610 -95.340165 287 8378ft 279kts
26-Aug-18 14:24 29.616411 -95.423968 287 11346ft 335kts
26-Aug-18 14:25 29.648069 -95.533754 287 14477ft 381kts
26-Aug-18 14:26 29.679026 -95.640755 287 17312ft 398kts
26-Aug-18 14:27 29.713224 -95.759157 287 20301ft 418kts
26-Aug-18 14:28 29.767281 -95.876375 300 23339ft 433kts
26-Aug-18 14:29 29.818058 -95.976002 300 25910ft 436kts
26-Aug-18 14:30 29.890816 -96.117889 301 28833ft 447kts
26-Aug-18 14:31 29.935480 -96.224404 283 30907ft 448kts
26-Aug-18 14:32 29.964359 -96.386590 281 33800ft 442kts
26-Aug-18 14:33 29.982792 -96.501382 281 35868ft 434kts
26-Aug-18 14:34 30.004046 -96.637845 281 37496ft 443kts
26-Aug-18 14:35 30.025365 -96.776751 280 38865ft 454kts
26-Aug-18 14:36 30.047196 -96.920338 280 40250ft 460kts
26-Aug-18 14:37 30.069223 -97.066274 280 41641ft 464kts
26-Aug-18 14:38 30.091091 -97.212371 279 42996ft 466kts
26-Aug-18 14:39 30.113563 -97.363855 279 43037ft 494kts
26-Aug-18 14:40 30.136064 -97.516744 279 43029ft 489kts
26-Aug-18 14:41 30.158446 -97.670116 279 43027ft 489kts
26-Aug-18 14:42 30.185403 -97.822993 283 43029ft 489kts
26-Aug-18 14:43 30.216740 -97.975055 283 43034ft 489kts
26-Aug-18 14:44 30.247992 -98.127587 283 43056ft 489kts
26-Aug-18 14:45 30.278908 -98.279422 283 43066ft 489kts
26-Aug-18 14:46 30.310582 -98.432013 284 43072ft 489kts
26-Aug-18 14:47 30.343009 -98.584554 284 43068ft 489kts
26-Aug-18 14:48 30.374779 -98.734828 283 43056ft 489kts
26-Aug-18 14:49 30.406846 -98.887423 283 43054ft 489kts
26-Aug-18 14:50 30.438693 -99.039806 283 43063ft 489kts
26-Aug-18 14:51 30.470373 -99.192477 282 43067ft 488kts
26-Aug-18 14:52 30.500901 -99.340512 282 43072ft 488kts
26-Aug-18 14:53 30.532197 -99.493198 282 43075ft 488kts
26-Aug-18 14:54 30.563283 -99.645790 282 43075ft 488kts
26-Aug-18 14:55 30.594176 -99.798562 281 43072ft 488kts
26-Aug-18 14:56 30.614769 -99.953885 277 43073ft 488kts
26-Aug-18 14:57 30.634054 -100.109553 277 43075ft 488kts
26-Aug-18 14:58 30.653044 -100.265405 277 43093ft 488kts
26-Aug-18 14:59 30.671812 -100.421200 277 43102ft 488kts
26-Aug-18 15:00 30.690188 -100.575286 277 43103ft 488kts
26-Aug-18 15:01 30.707306 -100.720352 276 43100ft 487kts
26-Aug-18 15:02 30.724396 -100.866596 276 43099ft 487kts
26-Aug-18 15:03 30.739233 -100.994681 276 43094ft 484kts
26-Aug-18 15:04 30.756953 -101.149151 276 43092ft 483kts
26-Aug-18 15:05 30.774461 -101.303472 276 43093ft 483kts
26-Aug-18 15:06 30.774481 -101.303652 276 43093ft 483kts
26-Aug-18 15:07 30.774481 -101.303652 276 43093ft 483kts
26-Aug-18 15:08 30.774481 -101.303652 276 43093ft 483kts
26-Aug-18 15:09 30.774481 -101.303652 276 43093ft 483kts
26-Aug-18 15:10 30.774481 -101.303652 276 43093ft 483kts
26-Aug-18 15:11 30.774481 -101.303652 276 43093ft 483kts
26-Aug-18 15:12 30.774481 -101.303652 276 43093ft 483kts
26-Aug-18 15:13 30.774481 -101.303652 276 43093ft 483kts
26-Aug-18 15:14 30.774481 -101.303652 276 43093ft 483kts
26-Aug-18 15:15 30.774481 -101.303652 276 43093ft 483kts
26-Aug-18 15:16 30.774481 -101.303652 276 43093ft 483kts
26-Aug-18 15:17 30.774481 -101.303652 276 43093ft 483kts
26-Aug-18 15:18 30.774481 -101.303652 276 43093ft 483kts
26-Aug-18 15:19 30.774481 -101.303652 276 43093ft 483kts
26-Aug-18 15:20 30.774481 -101.303652 276 43093ft 483kts
26-Aug-18 15:21 30.774481 -101.303652 276 43093ft 483kts
26-Aug-18 15:22 30.774481 -101.303652 276 43093ft 483kts
26-Aug-18 15:23 30.774481 -101.303652 276 43093ft 483kts
26-Aug-18 15:24 30.774481 -101.303652 276 43093ft 483kts
26-Aug-18 15:25 30.774481 -101.303652 276 43093ft 483kts
26-Aug-18 15:26 30.774481 -101.303652 276 43093ft 483kts
26-Aug-18 15:27 30.774481 -101.303652 276 43093ft 483kts
26-Aug-18 15:28 30.774481 -101.303652 276 43093ft 483kts
26-Aug-18 15:29 30.774481 -101.303652 276 43093ft 483kts
26-Aug-18 15:30 30.774481 -101.303652 276 43093ft 483kts
26-Aug-18 15:31 30.784695 -101.394620 276 43075ft 483kts
26-Aug-18 15:32 30.801870 -101.548603 276 43075ft 483kts
26-Aug-18 15:33 30.818889 -101.702940 276 43073ft 483kts
26-Aug-18 15:34 30.830491 -101.809119 276 43073ft 483kts
26-Aug-18 15:35 30.830491 -101.809119 276 43073ft 483kts
26-Aug-18 15:36 30.830491 -101.809119 276 43073ft 483kts
26-Aug-18 15:37 30.830491 -101.809119 276 43073ft 483kts
26-Aug-18 15:38 30.830491 -101.809119 276 43073ft 483kts
26-Aug-18 15:39 30.830491 -101.809119 276 43073ft 483kts
26-Aug-18 15:40 30.830491 -101.809119 276 43073ft 483kts
26-Aug-18 15:41 30.838269 -101.880778 276 43073ft 483kts
26-Aug-18 15:42 30.854907 -102.035381 276 43071ft 483kts
26-Aug-18 15:43 30.871366 -102.189961 276 43042ft 483kts
26-Aug-18 15:44 30.887641 -102.344590 275 43029ft 483kts
26-Aug-18 15:45 30.903742 -102.499399 275 43029ft 482kts
26-Aug-18 15:46 30.919594 -102.653678 275 43029ft 481kts
26-Aug-18 15:47 30.935097 -102.806266 275 43028ft 479kts
26-Aug-18 15:48 30.950978 -102.959927 278 43022ft 479kts
26-Aug-18 15:49 30.988648 -103.106978 286 43028ft 475kts
26-Aug-18 15:50 31.028307 -103.252344 286 43021ft 467kts
26-Aug-18 15:51 31.067442 -103.395715 286 42986ft 465kts
26-Aug-18 15:52 31.105206 -103.534620 286 42971ft 465kts
26-Aug-18 15:53 31.143612 -103.676479 285 42972ft 465kts
26-Aug-18 15:54 31.182193 -103.819700 285 42971ft 465kts
26-Aug-18 15:55 31.220684 -103.963226 285 42971ft 465kts
26-Aug-18 15:56 31.259022 -104.106915 285 42971ft 465kts
26-Aug-18 15:57 31.297170 -104.250635 285 42971ft 465kts
26-Aug-18 15:58 31.335306 -104.395040 285 42971ft 465kts
26-Aug-18 15:59 31.373219 -104.539331 285 42990ft 465kts
26-Aug-18 16:00 31.410711 -104.682749 285 43009ft 465kts
26-Aug-18 16:01 31.448286 -104.827216 285 43009ft 465kts
26-Aug-18 16:02 31.485743 -104.971897 284 43009ft 466kts
26-Aug-18 16:03 31.522812 -105.115821 284 43008ft 462kts
26-Aug-18 16:04 31.559643 -105.259751 284 43036ft 462kts
26-Aug-18 16:05 31.596244 -105.403467 284 43064ft 462kts
26-Aug-18 16:06 31.632717 -105.547417 284 43067ft 462kts
26-Aug-18 16:07 31.668990 -105.691301 283 43067ft 462kts
26-Aug-18 16:08 31.705198 -105.835629 283 43065ft 462kts
26-Aug-18 16:09 31.741184 -105.979872 283 43065ft 462kts
26-Aug-18 16:10 31.777064 -106.124455 283 43065ft 462kts
26-Aug-18 16:11 31.816663 -106.267017 295 43067ft 466kts
26-Aug-18 16:12 31.897721 -106.387178 308 43064ft 472kts
26-Aug-18 16:13 31.984345 -106.502440 309 43064ft 472kts
26-Aug-18 16:14 32.071299 -106.617268 309 43074ft 472kts
26-Aug-18 16:15 32.157957 -106.731826 308 43098ft 471kts
26-Aug-18 16:16 32.244912 -106.847076 308 43118ft 472kts
26-Aug-18 16:17 32.331607 -106.962325 308 43118ft 472kts
26-Aug-18 16:18 32.418485 -107.078203 307 43118ft 471kts
26-Aug-18 16:19 32.505060 -107.194056 307 43118ft 471kts
26-Aug-18 16:20 32.591635 -107.310254 307 43118ft 471kts
26-Aug-18 16:21 32.677867 -107.426358 307 43118ft 471kts
26-Aug-18 16:22 32.762727 -107.540975 307 43119ft 471kts
26-Aug-18 16:23 32.848580 -107.657299 307 43161ft 471kts
26-Aug-18 16:24 32.934407 -107.773950 307 43203ft 471kts
26-Aug-18 16:25 33.020186 -107.890909 307 43190ft 467kts
26-Aug-18 16:26 33.104610 -108.006402 307 43200ft 461kts
26-Aug-18 16:27 33.188100 -108.120981 307 43199ft 459kts
26-Aug-18 16:28 33.271681 -108.236090 307 43198ft 460kts
26-Aug-18 16:29 33.355180 -108.351476 307 43198ft 460kts
26-Aug-18 16:30 33.438150 -108.466499 307 43198ft 460kts
26-Aug-18 16:31 33.521217 -108.582027 307 43279ft 460kts
26-Aug-18 16:32 33.601860 -108.694548 306 43330ft 460kts
26-Aug-18 16:33 33.684869 -108.810751 306 43331ft 460kts
26-Aug-18 16:34 33.766202 -108.924962 306 43331ft 460kts
26-Aug-18 16:35 33.846836 -109.038497 306 43331ft 462kts
26-Aug-18 16:36 33.928906 -109.154458 305 43333ft 463kts
26-Aug-18 16:37 34.010595 -109.270287 305 43331ft 464kts
26-Aug-18 16:38 34.090105 -109.383404 305 43322ft 464kts
26-Aug-18 16:39 34.168918 -109.495837 305 43319ft 463kts
26-Aug-18 16:40 34.224220 -109.574965 305 43301ft 464kts
26-Aug-18 16:41 34.319808 -109.712152 305 43246ft 463kts
26-Aug-18 16:42 34.402537 -109.831289 305 43244ft 463kts
26-Aug-18 16:43 34.471122 -109.930330 305 43272ft 463kts
26-Aug-18 16:44 34.567292 -110.069708 305 43274ft 463kts
26-Aug-18 16:45 34.635970 -110.169586 305 43274ft 463kts
26-Aug-18 16:46 34.717932 -110.289157 305 43219ft 463kts
26-Aug-18 16:47 34.813568 -110.429197 305 43146ft 463kts
26-Aug-18 16:48 34.881687 -110.529292 305 43145ft 463kts
26-Aug-18 16:49 34.963418 -110.649684 304 43145ft 463kts
26-Aug-18 16:50 35.044907 -110.770184 302 43154ft 461kts
26-Aug-18 16:51 35.112085 -110.897793 294 43143ft 454kts
26-Aug-18 16:52 35.176891 -111.029271 294 43143ft 451kts
26-Aug-18 16:53 35.241061 -111.160225 294 43159ft 449kts
26-Aug-18 16:54 35.304893 -111.291026 294 43258ft 450kts
26-Aug-18 16:55 35.368573 -111.422043 294 43324ft 450kts
26-Aug-18 16:56 35.432066 -111.553146 294 43295ft 450kts
26-Aug-18 16:57 35.494584 -111.682749 294 43272ft 449kts
26-Aug-18 16:58 35.557960 -111.814601 294 43288ft 449kts
26-Aug-18 16:59 35.588605 -111.956600 270 43301ft 430kts
26-Aug-18 17:00 35.595778 -112.103027 268 41813ft 421kts
26-Aug-18 17:01 35.600454 -112.239908 267 40095ft 385kts
26-Aug-18 17:02 35.604291 -112.369401 267 38470ft 380kts
26-Aug-18 17:03 35.607199 -112.499387 266 36776ft 381kts
26-Aug-18 17:04 35.609865 -112.628875 266 35080ft 383kts
26-Aug-18 17:05 35.612371 -112.757799 266 33434ft 388kts
26-Aug-18 17:06 35.614801 -112.891193 267 31723ft 394kts
26-Aug-18 17:07 35.617120 -113.025502 267 29985ft 401kts
26-Aug-18 17:08 35.619368 -113.163679 268 28162ft 409kts
26-Aug-18 17:09 35.621450 -113.301569 268 26262ft 402kts
26-Aug-18 17:10 35.623333 -113.437132 268 24421ft 393kts
26-Aug-18 17:11 35.629373 -113.569205 276 22689ft 389kts
26-Aug-18 17:12 35.646778 -113.696470 276 21019ft 382kts
26-Aug-18 17:13 35.664578 -113.823332 276 19365ft 375kts
26-Aug-18 17:14 35.682079 -113.947799 276 17732ft 368kts
26-Aug-18 17:15 35.699212 -114.070365 276 16120ft 361kts
26-Aug-18 17:16 35.715884 -114.190542 276 14621ft 351kts
26-Aug-18 17:17 35.730389 -114.295647 276 13236ft 301kts
26-Aug-18 17:18 35.766208 -114.382933 329 12311ft 316kts
26-Aug-18 17:19 35.846194 -114.428192 334 12008ft 316kts
26-Aug-18 17:20 35.923252 -114.466722 335 11210ft 282kts
26-Aug-18 17:21 35.992920 -114.500200 335 10477ft 263kts
26-Aug-18 17:22 36.037347 -114.559044 283 9689ft 245kts
26-Aug-18 17:24 36.069884 -114.715482 278 7788ft 237kts
26-Aug-18 17:25 36.072355 -114.791757 266 6762ft 202kts
26-Aug-18 17:26 36.073454 -114.859435 265 6272ft 197kts
26-Aug-18 17:27 36.073543 -114.930509 264 5180ft 171kts
26-Aug-18 17:28 36.076738 -114.978716 284 4636ft 167kts
26-Aug-18 17:29 36.102855 -115.020463 302 4323ft 157kts
26-Aug-18 17:30 36.126220 -115.064444 296 3737ft 143kts
26-Aug-18 17:31 36.136777 -115.102055 270 3066ft 127kts
26-Aug-18 17:32 36.122737 -115.142883 206 2712ft 146kts
26-Aug-18 17:33 36.089834 -115.162064 206 2125ft 84kts
26-Aug-18 17:34 36.083756 -115.166657 235 2155ft 0kts
26-Aug-18 17:35 36.081343 -115.170354 225 2170ft 11kts

Navigation Log

Ident Type
Flight plan parsing failed, navigation log unavailable